Time,TemperatureF,DewpointF,PressureIn,WindDirection,WindDirectionDegrees,WindSpeedMPH,WindSpeedGustMPH,Humidity,HourlyPrecipIn,Conditions,Clouds,dailyrainin,SoftwareType,DateUTC
2013-02-19 00:00:00,54.4,46.3,30.10,North,0,0.0,3.0,74,0.00,,,-99.99,WeatherLink 5.7,2013-02-19 05:00:00,
2013-02-19 00:15:00,55.0,46.9,30.11,North,0,0.0,4.0,74,0.00,,,-99.99,WeatherLink 5.7,2013-02-19 05:15:00,
2013-02-19 00:30:00,55.2,46.7,30.11,North,-999,0.0,0.0,73,0.01,,,-99.99,WeatherLink 5.7,2013-02-19 05:30:00,
2013-02-19 00:45:00,55.3,47.2,30.11,North,0,0.0,4.0,74,0.01,,,-99.99,WeatherLink 5.7,2013-02-19 05:45:00,
2013-02-19 01:00:00,55.6,47.4,30.10,North,0,0.0,1.0,74,0.01,,,-99.99,WeatherLink 5.7,2013-02-19 06:00:00,
2013-02-19 01:15:00,55.8,47.6,30.10,North,-999,0.0,0.0,74,0.01,,,-99.99,WeatherLink 5.7,2013-02-19 06:15:00,
2013-02-19 01:30:00,55.9,48.1,30.10,North,-999,0.0,0.0,75,0.00,,,-99.99,WeatherLink 5.7,2013-02-19 06:30:00,
2013-02-19 01:45:00,56.0,48.2,30.10,North,-999,0.0,0.0,75,0.00,,,-99.99,WeatherLink 5.7,2013-02-19 06:45:00,
2013-02-19 02:00:00,56.0,48.2,30.10,North,-999,0.0,0.0,75,0.00,,,-99.99,WeatherLink 5.7,2013-02-19 07:00:00,
2013-02-19 02:15:00,56.0,47.8,30.08,North,0,0.0,1.0,74,0.00,,,-99.99,WeatherLink 5.7,2013-02-19 07:15:00,
2013-02-19 02:30:00,56.0,47.8,30.08,North,-999,0.0,0.0,74,0.00,,,-99.99,WeatherLink 5.7,2013-02-19 07:30:00,
2013-02-19 02:45:00,56.0,48.2,30.08,North,-999,0.0,0.0,75,0.00,,,-99.99,WeatherLink 5.7,2013-02-19 07:45:00,
2013-02-19 03:00:00,55.7,47.9,30.07,North,-999,0.0,0.0,75,0.00,,,-99.99,WeatherLink 5.7,2013-02-19 08:00:00,
2013-02-19 03:15:00,55.2,47.8,30.06,North,-999,0.0,0.0,76,0.00,,,-99.99,WeatherLink 5.7,2013-02-19 08:15:00,
2013-02-19 03:30:00,54.7,47.3,30.06,North,-999,0.0,0.0,76,0.00,,,-99.99,WeatherLink 5.7,2013-02-19 08:30:00,
2013-02-19 03:45:00,54.3,46.9,30.06,North,-999,0.0,0.0,76,0.00,,,-99.99,WeatherLink 5.7,2013-02-19 08:45:00,
2013-02-19 04:00:00,53.8,46.8,30.05,North,-999,0.0,0.0,77,0.00,,,-99.99,WeatherLink 5.7,2013-02-19 09:00:00,
2013-02-19 04:15:00,53.4,46.4,30.06,North,-999,0.0,0.0,77,0.00,,,-99.99,WeatherLink 5.7,2013-02-19 09:15:00,
2013-02-19 04:30:00,53.1,46.4,30.06,North,-999,0.0,0.0,78,0.00,,,-99.99,WeatherLink 5.7,2013-02-19 09:30:00,
2013-02-19 04:45:00,52.9,46.6,30.05,North,-999,0.0,0.0,79,0.00,,,-99.99,WeatherLink 5.7,2013-02-19 09:45:00,
2013-02-19 05:00:00,52.9,46.9,30.05,North,-999,0.0,0.0,80,0.00,,,-99.99,WeatherLink 5.7,2013-02-19 10:00:00,
2013-02-19 05:15:00,53.2,47.2,30.05,North,-999,0.0,0.0,80,0.00,,,-99.99,WeatherLink 5.7,2013-02-19 10:15:00,
2013-02-19 05:30:00,53.3,47.3,30.05,North,-999,0.0,0.0,80,0.00,,,-99.99,WeatherLink 5.7,2013-02-19 10:30:00,
2013-02-19 05:45:00,53.3,47.3,30.05,North,-999,0.0,0.0,80,0.00,,,-99.99,WeatherLink 5.7,2013-02-19 10:45:00,
2013-02-19 06:00:00,53.2,47.5,30.05,North,-999,0.0,0.0,81,0.00,,,-99.99,WeatherLink 5.7,2013-02-19 11:00:00,
2013-02-19 06:15:00,53.1,47.4,30.05,North,-999,0.0,0.0,81,0.00,,,-99.99,WeatherLink 5.7,2013-02-19 11:15:00,
2013-02-19 06:30:00,52.8,47.5,30.05,North,-999,0.0,0.0,82,0.00,,,-99.99,WeatherLink 5.7,2013-02-19 11:30:00,
2013-02-19 06:45:00,52.8,47.5,30.05,North,-999,0.0,0.0,82,0.00,,,-99.99,WeatherLink 5.7,2013-02-19 11:45:00,
2013-02-19 07:00:00,52.7,47.4,30.05,North,-999,0.0,0.0,82,0.00,,,-99.99,WeatherLink 5.7,2013-02-19 12:00:00,
2013-02-19 07:15:00,52.6,47.6,30.05,North,-999,0.0,0.0,83,0.00,,,-99.99,WeatherLink 5.7,2013-02-19 12:15:00,
2013-02-19 07:30:00,53.0,48.3,30.04,North,-999,0.0,0.0,84,0.00,,,-99.99,WeatherLink 5.7,2013-02-19 12:30:00,
2013-02-19 07:45:00,53.9,49.5,30.05,North,-999,0.0,0.0,85,0.00,,,-99.99,WeatherLink 5.7,2013-02-19 12:45:00,
2013-02-19 08:00:00,55.4,51.0,30.05,North,0,0.0,5.0,85,0.01,,,-99.99,WeatherLink 5.7,2013-02-19 13:00:00,
2013-02-19 08:15:00,57.0,52.2,30.05,North,0,1.0,11.0,84,0.01,,,-99.99,WeatherLink 5.7,2013-02-19 13:15:00,
2013-02-19 08:30:00,58.7,53.2,30.06,North,0,2.0,9.0,82,0.01,,,-99.99,WeatherLink 5.7,2013-02-19 13:30:00,
2013-02-19 08:45:00,60.5,54.3,30.06,North,0,3.0,11.0,80,0.01,,,-99.99,WeatherLink 5.7,2013-02-19 13:45:00,
2013-02-19 09:00:00,62.2,55.3,30.07,North,0,1.0,7.0,78,0.00,,,-99.99,WeatherLink 5.7,2013-02-19 14:00:00,
2013-02-19 09:15:00,63.8,56.1,30.06,North,0,2.0,12.0,76,0.00,,,-99.99,WeatherLink 5.7,2013-02-19 14:15:00,
2013-02-19 09:30:00,65.1,56.6,30.07,North,0,2.0,10.0,74,0.00,,,-99.99,WeatherLink 5.7,2013-02-19 14:30:00,
2013-02-19 09:45:00,66.4,57.1,30.07,North,0,1.0,10.0,72,0.00,,,-99.99,WeatherLink 5.7,2013-02-19 14:45:00,
2013-02-19 10:00:00,67.6,57.5,30.07,North,0,1.0,11.0,70,0.00,,,-99.99,WeatherLink 5.7,2013-02-19 15:00:00,
2013-02-19 10:15:00,69.0,58.0,30.07,North,0,2.0,11.0,68,0.00,,,-99.99,WeatherLink 5.7,2013-02-19 15:15:00,
2013-02-19 10:30:00,70.0,57.7,30.07,North,0,1.0,7.0,65,0.00,,,-99.99,WeatherLink 5.7,2013-02-19 15:30:00,
2013-02-19 10:45:00,71.0,57.3,30.07,North,0,1.0,12.0,62,0.00,,,-99.99,WeatherLink 5.7,2013-02-19 15:45:00,
2013-02-19 11:00:00,71.6,57.4,30.07,North,0,1.0,11.0,61,0.00,,,-99.99,WeatherLink 5.7,2013-02-19 16:00:00,
2013-02-19 11:15:00,71.7,57.1,30.07,North,0,2.0,11.0,60,0.00,,,-99.99,WeatherLink 5.7,2013-02-19 16:15:00,
2013-02-19 11:30:00,72.6,57.4,30.07,North,0,3.0,16.0,59,0.00,,,-99.99,WeatherLink 5.7,2013-02-19 16:30:00,
2013-02-19 11:45:00,73.3,57.1,30.07,North,0,2.0,14.0,57,0.00,,,-99.99,WeatherLink 5.7,2013-02-19 16:45:00,
2013-02-19 12:00:00,73.8,57.1,30.06,North,0,2.0,12.0,56,0.00,,,-99.99,WeatherLink 5.7,2013-02-19 17:00:00,
2013-02-19 12:15:00,74.1,57.4,30.05,North,0,1.0,10.0,56,0.00,,,-99.99,WeatherLink 5.7,2013-02-19 17:15:00,
2013-02-19 12:30:00,74.5,57.3,30.05,North,0,2.0,19.0,55,0.00,,,-99.99,WeatherLink 5.7,2013-02-19 17:30:00,
2013-02-19 12:45:00,74.7,57.5,30.04,North,0,2.0,16.0,55,0.00,,,-99.99,WeatherLink 5.7,2013-02-19 17:45:00,
2013-02-19 13:00:00,75.0,56.7,30.03,North,0,1.0,10.0,53,0.00,,,-99.99,WeatherLink 5.7,2013-02-19 18:00:00,
2013-02-19 13:15:00,75.3,56.5,30.02,North,0,0.0,8.0,52,0.00,,,-99.99,WeatherLink 5.7,2013-02-19 18:15:00,
2013-02-19 13:30:00,75.5,56.6,30.02,North,0,0.0,10.0,52,0.00,,,-99.99,WeatherLink 5.7,2013-02-19 18:30:00,
2013-02-19 13:45:00,75.7,56.8,30.02,North,0,1.0,10.0,52,0.00,,,-99.99,WeatherLink 5.7,2013-02-19 18:45:00,
2013-02-19 14:00:00,75.6,56.2,30.02,North,0,0.0,10.0,51,0.00,,,-99.99,WeatherLink 5.7,2013-02-19 19:00:00,
2013-02-19 14:15:00,75.3,55.9,30.02,North,0,1.0,15.0,51,0.00,,,-99.99,WeatherLink 5.7,2013-02-19 19:15:00,
2013-02-19 14:30:00,75.1,56.3,30.01,North,0,1.0,12.0,52,0.00,,,-99.99,WeatherLink 5.7,2013-02-19 19:30:00,
2013-02-19 14:45:00,75.1,56.3,30.01,North,0,0.0,6.0,52,0.00,,,-99.99,WeatherLink 5.7,2013-02-19 19:45:00,
2013-02-19 15:00:00,75.1,56.8,30.00,North,0,1.0,10.0,53,0.00,,,-99.99,WeatherLink 5.7,2013-02-19 20:00:00,
2013-02-19 15:15:00,74.9,57.1,30.00,North,0,1.0,11.0,54,0.00,,,-99.99,WeatherLink 5.7,2013-02-19 20:15:00,
2013-02-19 15:30:00,74.6,57.4,30.00,North,0,1.0,12.0,55,0.00,,,-99.99,WeatherLink 5.7,2013-02-19 20:30:00,
2013-02-19 15:45:00,74.6,56.9,30.00,North,0,0.0,7.0,54,0.00,,,-99.99,WeatherLink 5.7,2013-02-19 20:45:00,
2013-02-19 16:00:00,74.5,57.3,29.99,North,0,0.0,9.0,55,0.00,,,-99.99,WeatherLink 5.7,2013-02-19 21:00:00,
2013-02-19 16:15:00,74.1,57.4,29.99,North,0,0.0,7.0,56,0.00,,,-99.99,WeatherLink 5.7,2013-02-19 21:15:00,
2013-02-19 16:30:00,73.8,57.6,30.00,North,0,1.0,10.0,57,0.00,,,-99.99,WeatherLink 5.7,2013-02-19 21:30:00,
2013-02-19 16:45:00,73.4,57.2,30.00,North,0,1.0,13.0,57,0.00,,,-99.99,WeatherLink 5.7,2013-02-19 21:45:00,
2013-02-19 17:00:00,72.9,57.3,29.99,North,0,0.0,7.0,58,0.00,,,-99.99,WeatherLink 5.7,2013-02-19 22:00:00,
2013-02-19 17:15:00,72.4,57.3,30.00,North,0,0.0,10.0,59,0.00,,,-99.99,WeatherLink 5.7,2013-02-19 22:15:00,
2013-02-19 17:30:00,71.9,57.7,30.00,North,0,0.0,4.0,61,0.00,,,-99.99,WeatherLink 5.7,2013-02-19 22:30:00,
2013-02-19 17:45:00,71.3,57.6,30.00,North,0,0.0,10.0,62,0.00,,,-99.99,WeatherLink 5.7,2013-02-19 22:45:00,
2013-02-19 18:00:00,70.6,57.8,30.00,North,0,0.0,3.0,64,0.00,,,-99.99,WeatherLink 5.7,2013-02-19 23:00:00,
2013-02-19 18:15:00,69.9,57.6,30.00,North,-999,0.0,0.0,65,0.00,,,-99.99,WeatherLink 5.7,2013-02-19 23:15:00,
2013-02-19 18:30:00,69.1,57.7,30.00,North,-999,0.0,0.0,67,0.00,,,-99.99,WeatherLink 5.7,2013-02-19 23:30:00,
2013-02-19 18:45:00,68.4,57.4,30.00,North,-999,0.0,0.0,68,0.00,,,-99.99,WeatherLink 5.7,2013-02-19 23:45:00,
2013-02-19 19:00:00,67.6,57.5,30.00,North,-999,0.0,0.0,70,0.00,,,-99.99,WeatherLink 5.7,2013-02-20 00:00:00,
2013-02-19 19:15:00,66.9,56.4,30.00,North,-999,0.0,0.0,69,0.00,,,-99.99,WeatherLink 5.7,2013-02-20 00:15:00,
2013-02-19 19:30:00,66.2,56.5,30.00,North,-999,0.0,0.0,71,0.00,,,-99.99,WeatherLink 5.7,2013-02-20 00:30:00,
2013-02-19 19:45:00,65.6,56.3,30.01,North,-999,0.0,0.0,72,0.00,,,-99.99,WeatherLink 5.7,2013-02-20 00:45:00,
2013-02-19 20:00:00,65.1,56.2,30.01,North,-999,0.0,0.0,73,0.00,,,-99.99,WeatherLink 5.7,2013-02-20 01:00:00,
2013-02-19 20:15:00,64.7,55.8,30.01,North,-999,0.0,0.0,73,0.00,,,-99.99,WeatherLink 5.7,2013-02-20 01:15:00,
2013-02-19 20:30:00,64.3,55.5,30.01,North,-999,0.0,0.0,73,0.00,,,-99.99,WeatherLink 5.7,2013-02-20 01:30:00,
2013-02-19 20:45:00,63.8,55.4,30.01,North,-999,0.0,0.0,74,0.00,,,-99.99,WeatherLink 5.7,2013-02-20 01:45:00,
2013-02-19 21:00:00,63.4,55.3,30.01,North,-999,0.0,0.0,75,0.00,,,-99.99,WeatherLink 5.7,2013-02-20 02:00:00,
2013-02-19 21:15:00,63.2,55.5,30.00,North,-999,0.0,0.0,76,0.00,,,-99.99,WeatherLink 5.7,2013-02-20 02:15:00,
2013-02-19 21:30:00,62.9,55.2,30.01,North,-999,0.0,0.0,76,0.00,,,-99.99,WeatherLink 5.7,2013-02-20 02:30:00,
2013-02-19 21:45:00,62.5,54.8,30.01,North,-999,0.0,0.0,76,0.00,,,-99.99,WeatherLink 5.7,2013-02-20 02:45:00,
2013-02-19 22:00:00,62.3,55.0,30.01,North,-999,0.0,0.0,77,0.00,,,-99.99,WeatherLink 5.7,2013-02-20 03:00:00,
2013-02-19 22:15:00,62.0,55.1,30.01,North,-999,0.0,0.0,78,0.00,,,-99.99,WeatherLink 5.7,2013-02-20 03:15:00,
2013-02-19 22:30:00,61.8,55.2,30.00,North,-999,0.0,0.0,79,0.00,,,-99.99,WeatherLink 5.7,2013-02-20 03:30:00,
2013-02-19 22:45:00,61.6,55.0,30.00,North,-999,0.0,0.0,79,0.00,,,-99.99,WeatherLink 5.7,2013-02-20 03:45:00,
2013-02-19 23:00:00,61.4,54.8,30.00,North,-999,0.0,0.0,79,0.00,,,-99.99,WeatherLink 5.7,2013-02-20 04:00:00,
2013-02-19 23:15:00,61.2,54.6,29.99,North,-999,0.0,0.0,79,0.00,,,-99.99,WeatherLink 5.7,2013-02-20 04:15:00,
2013-02-19 23:30:00,61.0,54.8,29.99,North,-999,0.0,0.0,80,0.00,,,-99.99,WeatherLink 5.7,2013-02-20 04:30:00,
2013-02-19 23:45:00,61.0,55.1,29.99,North,-999,0.0,0.0,81,0.00,,,-99.99,WeatherLink 5.7,2013-02-20 04:45:00,